createdAt,value
2023-03-03T00:01:12.401Z,2.80
2023-03-03T00:03:40.319Z,2.70
2023-03-03T00:06:11.405Z,2.60
2023-03-03T00:08:39.308Z,2.60
2023-03-03T00:11:08.641Z,2.60
2023-03-03T00:13:45.240Z,2.60
2023-03-03T00:16:22.024Z,2.70
2023-03-03T00:18:50.551Z,2.70
2023-03-03T00:21:25.761Z,2.60
2023-03-03T00:23:55.065Z,2.70
2023-03-03T00:26:31.721Z,2.60
2023-03-03T00:28:59.472Z,2.50
2023-03-03T00:31:32.003Z,2.50
2023-03-03T00:34:12.112Z,2.50
2023-03-03T00:36:42.038Z,2.50
2023-03-03T00:39:22.932Z,2.50
2023-03-03T00:41:52.022Z,2.50
2023-03-03T00:44:36.354Z,2.50
2023-03-03T00:47:24.646Z,2.40
2023-03-03T00:49:52.564Z,2.30
2023-03-03T00:52:21.689Z,2.30
2023-03-03T00:54:49.634Z,2.30
2023-03-03T00:57:18.724Z,2.30
2023-03-03T00:59:46.515Z,2.30
2023-03-03T01:02:14.564Z,2.40
2023-03-03T01:04:45.086Z,2.20
2023-03-03T01:07:12.824Z,2.20
2023-03-03T01:09:40.758Z,2.20
2023-03-03T01:12:08.766Z,2.20
2023-03-03T01:14:38.410Z,2.20
2023-03-03T01:17:06.658Z,2.20
2023-03-03T01:19:34.740Z,2.10
2023-03-03T01:22:02.982Z,2.10
2023-03-03T01:24:30.961Z,2.10
2023-03-03T01:26:58.729Z,2.10
2023-03-03T01:29:26.610Z,2.10
2023-03-03T01:31:55.871Z,2.00
2023-03-03T01:34:23.818Z,2.00
2023-03-03T01:36:53.070Z,1.90
2023-03-03T01:39:20.915Z,1.90
2023-03-03T01:41:48.690Z,1.90
2023-03-03T01:44:16.856Z,1.80
2023-03-03T01:46:59.549Z,1.80
2023-03-03T01:49:30.016Z,1.80
2023-03-03T01:52:02.094Z,1.90
2023-03-03T01:54:34.755Z,1.90
2023-03-03T01:57:06.921Z,1.80
2023-03-03T01:59:38.594Z,1.90
2023-03-03T02:02:09.365Z,1.80
2023-03-03T02:04:37.798Z,1.80
2023-03-03T02:07:10.703Z,1.80
2023-03-03T02:09:47.404Z,1.70
2023-03-03T02:12:18.301Z,1.70
2023-03-03T02:14:46.536Z,1.60
2023-03-03T02:17:16.374Z,1.60
2023-03-03T02:19:51.819Z,1.60
2023-03-03T02:22:24.891Z,1.60
2023-03-03T02:24:59.889Z,1.50
2023-03-03T02:27:32.548Z,1.50
2023-03-03T02:30:10.094Z,1.50
2023-03-03T02:32:38.021Z,1.60
2023-03-03T02:35:26.663Z,1.60
2023-03-03T02:37:56.251Z,1.60
2023-03-03T02:40:26.723Z,1.60
2023-03-03T02:42:58.781Z,1.60
2023-03-03T02:45:26.606Z,1.60
2023-03-03T02:47:54.448Z,1.50
2023-03-03T02:50:22.236Z,1.50
2023-03-03T02:52:50.033Z,1.50
2023-03-03T02:55:17.986Z,1.50
2023-03-03T02:57:45.776Z,1.40
2023-03-03T03:00:15.809Z,1.40
2023-03-03T03:02:43.620Z,1.40
2023-03-03T03:05:11.683Z,1.30
2023-03-03T03:07:40.819Z,1.30
2023-03-03T03:10:09.677Z,1.30
2023-03-03T03:12:39.826Z,1.30
2023-03-03T03:15:10.400Z,1.30
2023-03-03T03:17:40.030Z,1.20
2023-03-03T03:20:08.818Z,1.20
2023-03-03T03:22:36.704Z,1.20
2023-03-03T03:25:04.910Z,1.30
2023-03-03T03:27:33.117Z,1.30
2023-03-03T03:30:01.234Z,1.30
2023-03-03T03:32:30.846Z,1.30
2023-03-03T03:35:00.180Z,1.20
2023-03-03T03:37:28.303Z,1.20
2023-03-03T03:39:56.265Z,1.20
2023-03-03T03:42:24.997Z,1.30
2023-03-03T03:44:53.574Z,1.40
2023-03-03T03:47:21.488Z,1.40
2023-03-03T03:49:49.305Z,1.40
2023-03-03T03:52:18.509Z,1.40
2023-03-03T03:54:46.315Z,1.40
2023-03-03T03:57:14.295Z,1.40
2023-03-03T03:59:42.816Z,1.40
2023-03-03T04:02:10.767Z,1.40
2023-03-03T04:04:39.261Z,1.40
2023-03-03T04:07:09.707Z,1.30
2023-03-03T04:09:40.590Z,1.30
2023-03-03T04:12:09.200Z,1.30
2023-03-03T04:14:37.167Z,1.20
2023-03-03T04:17:04.975Z,1.20
2023-03-03T04:19:33.015Z,1.20
2023-03-03T04:22:01.172Z,1.20
2023-03-03T04:24:32.092Z,1.10
2023-03-03T04:27:01.277Z,1.20
2023-03-03T04:29:29.836Z,1.20
2023-03-03T04:31:57.987Z,1.20
2023-03-03T04:34:27.863Z,1.20
2023-03-03T04:36:56.119Z,1.20
2023-03-03T04:39:24.366Z,1.20
2023-03-03T04:41:52.304Z,1.10
2023-03-03T04:44:22.634Z,1.10
2023-03-03T04:46:50.709Z,1.10
2023-03-03T04:49:18.616Z,1.10
2023-03-03T04:51:46.428Z,1.10
2023-03-03T04:54:14.995Z,1.10
2023-03-03T04:56:43.743Z,1.10
2023-03-03T04:59:11.677Z,1.20
2023-03-03T05:01:41.001Z,1.10
2023-03-03T05:04:09.333Z,1.10
2023-03-03T05:06:37.205Z,1.00
2023-03-03T05:09:06.008Z,1.00
2023-03-03T05:11:33.833Z,1.10
2023-03-03T05:14:03.070Z,1.00
2023-03-03T05:16:31.132Z,1.00
2023-03-03T05:19:00.233Z,1.00
2023-03-03T05:21:28.080Z,1.00
2023-03-03T05:23:55.837Z,1.10
2023-03-03T05:26:23.606Z,1.10
2023-03-03T05:28:51.381Z,1.10
2023-03-03T05:31:19.221Z,1.20
2023-03-03T05:33:47.096Z,1.20
2023-03-03T05:36:16.254Z,1.10
2023-03-03T05:38:44.027Z,1.00
2023-03-03T05:41:11.952Z,1.00
2023-03-03T05:43:39.706Z,1.00
2023-03-03T05:46:07.460Z,1.00
2023-03-03T05:48:35.269Z,1.00
2023-03-03T05:51:03.031Z,0.90
2023-03-03T05:53:33.949Z,0.90
2023-03-03T05:56:01.711Z,0.90
2023-03-03T05:58:29.595Z,0.90
2023-03-03T06:00:57.434Z,0.90
2023-03-03T06:03:25.287Z,0.90
2023-03-03T06:05:53.070Z,0.90
2023-03-03T06:08:20.969Z,0.90
2023-03-03T06:10:50.114Z,0.90
2023-03-03T06:13:18.108Z,0.90
2023-03-03T06:15:45.988Z,0.90
2023-03-03T06:18:13.895Z,0.90
2023-03-03T06:20:41.847Z,0.90
2023-03-03T06:23:09.676Z,0.90
2023-03-03T06:25:37.845Z,0.90
2023-03-03T06:28:07.026Z,0.90
2023-03-03T06:30:34.808Z,0.90
2023-03-03T06:33:02.645Z,0.90
2023-03-03T06:35:30.868Z,0.90
2023-03-03T06:37:58.770Z,0.90
2023-03-03T06:40:26.646Z,0.90
2023-03-03T06:42:54.462Z,0.80
2023-03-03T06:45:23.708Z,0.80
2023-03-03T06:47:51.482Z,0.80
2023-03-03T06:50:22.112Z,0.90
2023-03-03T06:52:49.935Z,0.90
2023-03-03T06:55:23.494Z,1.00
2023-03-03T06:57:51.565Z,1.00
2023-03-03T07:00:24.340Z,1.00
2023-03-03T07:02:58.889Z,1.00
2023-03-03T07:05:28.852Z,1.10
2023-03-03T07:07:57.174Z,1.10
2023-03-03T07:10:27.705Z,1.00
2023-03-03T07:12:58.357Z,1.00
2023-03-03T07:15:36.813Z,1.00
2023-03-03T07:18:21.646Z,1.00
2023-03-03T07:20:49.639Z,1.00
2023-03-03T07:23:25.670Z,1.00
2023-03-03T07:25:54.013Z,1.00
2023-03-03T07:28:25.107Z,1.00
2023-03-03T07:30:53.399Z,1.10
2023-03-03T07:33:27.392Z,1.10
2023-03-03T07:35:57.368Z,1.10
2023-03-03T07:38:31.541Z,1.10
2023-03-03T07:41:01.586Z,1.10
2023-03-03T07:43:37.691Z,1.10
2023-03-03T07:46:29.290Z,1.10
2023-03-03T07:48:59.834Z,1.20
2023-03-03T07:51:31.788Z,1.20
2023-03-03T07:54:15.644Z,1.20
2023-03-03T07:56:43.525Z,1.20
2023-03-03T07:59:22.018Z,1.20
2023-03-03T08:01:55.210Z,1.30
2023-03-03T08:04:29.489Z,1.30
2023-03-03T08:06:58.668Z,1.40
2023-03-03T08:09:47.038Z,1.50
2023-03-03T08:12:32.381Z,1.50
2023-03-03T08:15:20.476Z,1.50
2023-03-03T08:17:48.928Z,1.60
2023-03-03T08:20:45.448Z,1.60
2023-03-03T08:23:13.975Z,1.60
2023-03-03T08:25:42.694Z,1.60
2023-03-03T08:28:10.983Z,1.60
2023-03-03T08:30:39.070Z,1.60
2023-03-03T08:33:07.243Z,1.60
2023-03-03T08:35:35.198Z,1.50
2023-03-03T08:38:04.512Z,1.50
2023-03-03T08:40:32.854Z,1.50
2023-03-03T08:43:01.215Z,1.50
2023-03-03T08:45:29.794Z,1.60
2023-03-03T08:47:57.722Z,1.60
2023-03-03T08:50:25.591Z,1.70
2023-03-03T08:52:54.498Z,1.70
2023-03-03T08:55:23.802Z,1.60
2023-03-03T08:57:51.639Z,1.60
2023-03-03T09:00:20.176Z,1.60
2023-03-03T09:02:48.243Z,1.70
2023-03-03T09:05:17.266Z,1.80
2023-03-03T09:07:47.832Z,1.90
2023-03-03T09:10:19.195Z,1.90
2023-03-03T09:12:49.441Z,2.00
2023-03-03T09:15:24.640Z,2.00
2023-03-03T09:17:52.438Z,2.00
2023-03-03T09:20:29.487Z,1.90
2023-03-03T09:22:57.529Z,1.80
2023-03-03T09:25:32.835Z,1.70
2023-03-03T09:28:02.351Z,1.70
2023-03-03T09:30:39.357Z,1.70
2023-03-03T09:33:24.158Z,1.80
2023-03-03T09:35:55.026Z,1.90
2023-03-03T09:38:28.712Z,2.00
2023-03-03T09:41:26.384Z,2.10
2023-03-03T09:44:17.211Z,2.20
2023-03-03T09:46:58.664Z,2.30
2023-03-03T09:49:33.649Z,2.40
2023-03-03T09:52:18.257Z,2.40
2023-03-03T09:54:57.648Z,2.50
2023-03-03T09:57:37.186Z,2.60
2023-03-03T10:00:23.103Z,2.70
2023-03-03T10:03:05.190Z,2.60
2023-03-03T10:05:42.825Z,2.50
2023-03-03T10:08:25.968Z,2.60
2023-03-03T10:11:10.046Z,2.70
2023-03-03T10:13:48.598Z,2.70
2023-03-03T10:16:50.774Z,2.70
2023-03-03T10:19:34.224Z,2.70
2023-03-03T10:22:19.588Z,2.80
2023-03-03T10:24:58.312Z,2.70
2023-03-03T10:27:44.999Z,2.60
2023-03-03T10:30:38.332Z,2.70
2023-03-03T10:33:13.662Z,2.70
2023-03-03T10:36:06.669Z,2.80
2023-03-03T10:38:50.355Z,2.90
2023-03-03T10:41:32.481Z,3.10
2023-03-03T10:44:15.393Z,3.30
2023-03-03T10:46:56.192Z,3.30
2023-03-03T10:49:51.171Z,3.30
2023-03-03T10:52:32.438Z,3.40
2023-03-03T10:55:18.608Z,3.40
2023-03-03T10:57:55.526Z,3.50
2023-03-03T11:00:28.571Z,3.50
2023-03-03T11:03:28.365Z,3.60
2023-03-03T11:06:01.347Z,3.60
2023-03-03T11:08:34.307Z,3.60
2023-03-03T11:11:10.918Z,3.60
2023-03-03T11:13:46.940Z,3.70
2023-03-03T11:16:29.400Z,3.70
2023-03-03T11:19:12.991Z,3.60
2023-03-03T11:21:49.968Z,3.70
2023-03-03T11:24:34.364Z,3.90
2023-03-03T11:27:26.397Z,4.00
2023-03-03T11:30:17.893Z,4.20
2023-03-03T11:32:52.280Z,4.30
2023-03-03T11:35:24.666Z,4.40
2023-03-03T11:38:02.813Z,4.40
2023-03-03T11:40:43.721Z,4.50
2023-03-03T11:43:33.740Z,4.60
2023-03-03T11:46:08.462Z,4.70
2023-03-03T11:48:42.070Z,4.80
2023-03-03T11:51:15.391Z,4.80
2023-03-03T11:53:56.981Z,4.80
2023-03-03T11:56:28.129Z,4.80
2023-03-03T11:59:15.058Z,4.70
2023-03-03T12:01:50.694Z,4.60
2023-03-03T12:04:23.196Z,4.50
2023-03-03T12:07:16.819Z,4.50
2023-03-03T12:09:56.196Z,4.30
2023-03-03T12:12:28.644Z,4.00
2023-03-03T12:15:08.491Z,3.90
2023-03-03T12:18:08.143Z,4.00
2023-03-03T12:20:49.010Z,4.20
2023-03-03T12:23:37.734Z,4.30
2023-03-03T12:26:16.611Z,4.30
2023-03-03T12:28:51.766Z,4.20
2023-03-03T12:31:27.408Z,4.10
2023-03-03T12:33:58.211Z,4.10
2023-03-03T12:36:51.483Z,4.20
2023-03-03T12:39:34.938Z,4.30
2023-03-03T12:42:15.252Z,4.30
2023-03-03T12:44:48.570Z,4.40
2023-03-03T12:47:19.885Z,4.60
2023-03-03T12:50:07.616Z,4.70
2023-03-03T12:52:47.500Z,4.80
2023-03-03T12:55:24.426Z,4.80
2023-03-03T12:58:03.698Z,4.80
2023-03-03T13:00:43.182Z,4.80
2023-03-03T13:03:18.721Z,4.80
2023-03-03T13:05:54.738Z,4.70
2023-03-03T13:08:34.840Z,4.60
2023-03-03T13:11:20.962Z,4.70
2023-03-03T13:13:54.790Z,4.60
2023-03-03T13:16:40.297Z,4.60
2023-03-03T13:19:12.550Z,4.70
2023-03-03T13:21:44.214Z,4.60
2023-03-03T13:24:21.092Z,4.60
2023-03-03T13:26:55.281Z,4.50
2023-03-03T13:29:28.992Z,4.50
2023-03-03T13:31:59.518Z,4.50
2023-03-03T13:34:41.532Z,4.70
2023-03-03T13:37:16.982Z,4.70
2023-03-03T13:39:56.589Z,4.80
2023-03-03T13:42:33.496Z,4.80
2023-03-03T13:45:04.633Z,4.90
2023-03-03T13:47:42.366Z,4.80
2023-03-03T13:50:26.814Z,4.70
2023-03-03T13:53:18.666Z,4.60
2023-03-03T13:55:53.524Z,4.40
2023-03-03T13:58:28.572Z,4.30
2023-03-03T14:01:02.585Z,4.40
2023-03-03T14:03:54.773Z,4.50
2023-03-03T14:06:24.709Z,4.50
2023-03-03T14:09:15.329Z,4.60
2023-03-03T14:11:48.599Z,4.70
2023-03-03T14:14:43.960Z,4.70
2023-03-03T14:17:22.862Z,4.70
2023-03-03T14:19:58.441Z,4.70
2023-03-03T14:22:32.608Z,4.70
2023-03-03T14:25:03.961Z,4.60
2023-03-03T14:27:37.200Z,4.60
2023-03-03T14:30:29.053Z,4.60
2023-03-03T14:33:04.719Z,4.70
2023-03-03T14:35:37.327Z,4.70
2023-03-03T14:38:12.982Z,4.70
2023-03-03T14:40:43.002Z,4.60
2023-03-03T14:43:24.355Z,4.40
2023-03-03T14:45:53.008Z,4.40
2023-03-03T14:48:23.844Z,4.30
2023-03-03T14:50:53.813Z,4.40
2023-03-03T14:53:31.091Z,4.40
2023-03-03T14:56:17.060Z,4.50
2023-03-03T14:58:45.173Z,4.40
2023-03-03T15:01:23.348Z,4.30
2023-03-03T15:04:01.164Z,4.20
2023-03-03T15:06:36.001Z,4.10
2023-03-03T15:09:30.752Z,4.10
2023-03-03T15:12:01.025Z,4.00
2023-03-03T15:14:33.687Z,3.90
2023-03-03T15:17:26.208Z,3.80
2023-03-03T15:20:06.569Z,3.80
2023-03-03T15:22:47.762Z,3.80
2023-03-03T15:25:42.374Z,3.80
2023-03-03T15:28:27.970Z,3.90
2023-03-03T15:31:03.530Z,3.90
2023-03-03T15:34:05.576Z,3.90
2023-03-03T15:37:03.353Z,3.90
2023-03-03T15:39:39.750Z,4.00
2023-03-03T15:42:14.786Z,4.10
2023-03-03T15:44:56.063Z,3.90
2023-03-03T15:47:52.351Z,3.90
2023-03-03T15:50:29.708Z,3.90
2023-03-03T15:53:09.166Z,3.90
2023-03-03T15:55:48.655Z,3.80
2023-03-03T15:58:42.060Z,3.80
2023-03-03T16:01:16.465Z,3.80
2023-03-03T16:03:49.599Z,3.80
2023-03-03T16:06:23.204Z,3.80
2023-03-03T16:08:57.333Z,3.70
2023-03-03T16:11:34.627Z,3.60
2023-03-03T16:14:17.481Z,3.50
2023-03-03T16:17:01.113Z,3.50
2023-03-03T16:19:44.668Z,3.40
2023-03-03T16:22:35.788Z,3.40
2023-03-03T16:25:17.472Z,3.40
2023-03-03T16:27:53.305Z,3.30
2023-03-03T16:30:28.774Z,3.30
2023-03-03T16:33:11.093Z,3.30
2023-03-03T16:35:43.865Z,3.30
2023-03-03T16:38:18.329Z,3.30
2023-03-03T16:48:51.728Z,3.30
2023-03-03T16:51:48.574Z,3.20
2023-03-03T16:54:35.916Z,3.20
2023-03-03T17:02:07.104Z,3.10
2023-03-03T17:04:44.566Z,3.10
2023-03-03T17:07:26.832Z,3.00
2023-03-03T17:10:06.687Z,3.00
2023-03-03T17:12:51.262Z,3.00
2023-03-03T17:15:29.889Z,3.00
2023-03-03T17:18:11.678Z,3.00
2023-03-03T17:20:48.303Z,3.10
2023-03-03T17:23:35.925Z,3.10
2023-03-03T17:26:16.238Z,3.10
2023-03-03T17:28:54.041Z,3.10
2023-03-03T17:31:30.505Z,3.10
2023-03-03T17:34:09.976Z,3.10
2023-03-03T17:36:55.767Z,3.20
2023-03-03T17:39:45.707Z,3.10
2023-03-03T17:42:22.599Z,3.10
2023-03-03T17:44:59.312Z,3.00
2023-03-03T17:47:41.856Z,3.10
2023-03-03T17:50:29.420Z,3.00
2023-03-03T17:53:12.425Z,3.10
2023-03-03T17:55:53.792Z,3.10
2023-03-03T17:58:42.668Z,3.10
2023-03-03T18:01:21.486Z,3.10
2023-03-03T18:04:27.545Z,3.00
2023-03-03T18:07:27.882Z,3.00
2023-03-03T18:10:15.390Z,3.00
2023-03-03T18:12:53.700Z,3.00
2023-03-03T18:15:35.170Z,3.10
2023-03-03T18:18:22.004Z,3.10
2023-03-03T18:21:04.112Z,3.10
2023-03-03T18:23:39.689Z,3.10
2023-03-03T18:26:34.064Z,3.00
2023-03-03T18:29:21.388Z,3.10
2023-03-03T18:32:02.481Z,3.10
2023-03-03T18:34:38.350Z,3.10
2023-03-03T18:37:11.633Z,3.10
2023-03-03T18:39:45.770Z,3.00
2023-03-03T18:42:38.461Z,3.00
2023-03-03T18:45:49.630Z,3.00
2023-03-03T18:48:19.968Z,2.90
2023-03-03T18:50:49.611Z,2.90
2023-03-03T18:53:20.444Z,2.80
2023-03-03T18:55:50.024Z,2.90
2023-03-03T18:58:35.844Z,2.90
2023-03-03T19:01:41.543Z,2.80
2023-03-03T19:04:24.583Z,2.80
2023-03-03T19:07:19.862Z,2.80
2023-03-03T19:09:53.053Z,2.70
2023-03-03T19:12:47.258Z,2.70
2023-03-03T19:15:43.719Z,2.70
2023-03-03T19:18:18.504Z,2.60
2023-03-03T19:20:50.244Z,2.60
2023-03-03T19:23:21.151Z,2.60
2023-03-03T19:26:29.339Z,2.60
2023-03-03T19:29:06.481Z,2.60
2023-03-03T19:31:43.081Z,2.60
2023-03-03T19:34:17.070Z,2.70
2023-03-03T19:37:05.777Z,2.70
2023-03-03T19:39:54.586Z,2.70
2023-03-03T19:42:39.885Z,2.80
2023-03-03T19:45:20.613Z,2.80
2023-03-03T19:47:55.599Z,2.80
2023-03-03T19:50:32.839Z,2.80
2023-03-03T19:53:09.178Z,2.80
2023-03-03T19:55:50.089Z,2.80
2023-03-03T19:58:29.547Z,2.80
2023-03-03T20:01:08.743Z,2.80
2023-03-03T20:04:00.899Z,2.80
2023-03-03T20:06:42.215Z,2.90
2023-03-03T20:09:23.396Z,2.90
2023-03-03T20:12:11.800Z,2.90
2023-03-03T20:14:45.883Z,2.90
2023-03-03T20:17:30.545Z,2.90
2023-03-03T20:20:06.565Z,2.90
2023-03-03T20:22:43.407Z,2.90
2023-03-03T20:25:22.360Z,3.00
2023-03-03T20:27:59.172Z,2.90
2023-03-03T20:30:45.559Z,3.00
2023-03-03T20:33:27.394Z,3.00
2023-03-03T20:36:05.477Z,3.00
2023-03-03T20:38:45.409Z,2.90
2023-03-03T20:41:21.980Z,3.00
2023-03-03T20:44:02.702Z,2.90
2023-03-03T20:46:39.902Z,2.90
2023-03-03T20:49:24.528Z,2.90
2023-03-03T20:51:57.931Z,2.90
2023-03-03T20:54:39.035Z,2.90
2023-03-03T20:57:13.964Z,2.90
2023-03-03T20:59:47.619Z,2.90
2023-03-03T21:02:22.188Z,2.90
2023-03-03T21:05:09.634Z,3.00
2023-03-03T21:07:40.988Z,2.90
2023-03-03T21:10:15.278Z,2.90
2023-03-03T21:12:43.788Z,2.90
2023-03-03T21:15:24.401Z,2.90
2023-03-03T21:17:52.304Z,2.90
2023-03-03T21:20:35.301Z,2.90
2023-03-03T21:23:03.708Z,2.90
2023-03-03T21:25:45.840Z,2.90
2023-03-03T21:28:15.523Z,2.90
2023-03-03T21:31:04.378Z,2.90
2023-03-03T21:33:43.584Z,2.90
2023-03-03T21:36:14.471Z,2.90
2023-03-03T21:38:42.619Z,3.00
2023-03-03T21:41:10.745Z,3.00
2023-03-03T21:43:40.536Z,3.00
2023-03-03T21:46:08.567Z,3.00
2023-03-03T21:48:36.514Z,3.00
2023-03-03T21:51:04.532Z,3.00
2023-03-03T21:53:33.617Z,2.90
2023-03-03T21:56:01.415Z,2.90
2023-03-03T21:58:29.239Z,3.00
2023-03-03T22:00:57.042Z,3.00
2023-03-03T22:03:26.851Z,3.00
2023-03-03T22:05:54.777Z,3.00
2023-03-03T22:08:23.624Z,3.00
2023-03-03T22:10:56.284Z,2.90
2023-03-03T22:13:25.428Z,2.90
2023-03-03T22:15:53.775Z,2.90
2023-03-03T22:18:21.886Z,2.90
2023-03-03T22:20:51.379Z,3.00
2023-03-03T22:23:19.862Z,2.90
2023-03-03T22:25:47.906Z,2.80
2023-03-03T22:28:17.080Z,2.70
2023-03-03T22:30:44.866Z,2.70
2023-03-03T22:33:12.666Z,2.60
2023-03-03T22:35:40.514Z,2.60
2023-03-03T22:38:08.490Z,2.50
2023-03-03T22:40:36.336Z,2.50
2023-03-03T22:43:06.357Z,2.50
2023-03-03T22:45:35.501Z,2.40
2023-03-03T22:48:03.303Z,2.40
2023-03-03T22:50:31.137Z,2.40
2023-03-03T22:52:58.931Z,2.50
2023-03-03T22:55:26.714Z,2.50
2023-03-03T22:57:54.492Z,2.50
2023-03-03T23:00:22.699Z,2.50
2023-03-03T23:02:51.920Z,2.50
2023-03-03T23:05:20.132Z,2.60
2023-03-03T23:07:48.024Z,2.50
2023-03-03T23:10:15.868Z,2.50
2023-03-03T23:12:43.670Z,2.50
2023-03-03T23:15:14.054Z,2.50
2023-03-03T23:17:42.219Z,2.50
2023-03-03T23:20:13.750Z,2.40
2023-03-03T23:22:42.239Z,2.40
2023-03-03T23:25:11.054Z,2.50
2023-03-03T23:27:39.135Z,2.50
2023-03-03T23:30:08.265Z,2.50
2023-03-03T23:32:36.110Z,2.50
2023-03-03T23:35:03.991Z,2.60
2023-03-03T23:37:33.445Z,2.60
2023-03-03T23:40:01.237Z,2.60
2023-03-03T23:42:30.631Z,2.70
2023-03-03T23:44:58.484Z,2.70
2023-03-03T23:47:26.517Z,2.70
2023-03-03T23:49:54.365Z,2.80
2023-03-03T23:52:22.148Z,2.80
2023-03-03T23:54:51.435Z,2.80
2023-03-03T23:57:19.228Z,2.80
2023-03-03T23:59:46.988Z,2.90
